Cer parțial înnorat, cu nori Cirrus
Înnorat
Cer parțial înnorat, cu puțini nori Cirrus
Parțial înnorat
Parțial înnorat
Înnorat
Parțial înnorat
(°C)
10°
10°
11°
11°
12°
12°
12°
12°
(°C)
SV
VSV
VSV
VSV
SV
SV
SV
(km/h)
12-18
15-21
18-27
21-34
24-40
25-45
26-50
(mm)
0
0
0
0
0
0
0
(%)
18
18
13
18
1
2
7

Elevația soarelui

/ 16.8°
sun-icon
UV 3
06:21
20:22
Primul sfert de lună (87°)
10:32
03:55

METAR pentru Bordenau (ETNW)

Ora Condiții Temperatură/
Punctul de rouă
Vânt Vizibilitate Vremea Nori Presiune Schimbă Brut
VFR 8°C / 6°C 190º 5kt 9700m - Few Clouds 2200ft
Broken Clouds 3800ft
1011 - ETNW 150520Z 19005KT 9999 FEW022 BKN038 08/06 Q1011 BLU BLU
VFR 7°C / 6°C 180º 5kt 9700m - Few Clouds 2700ft
Broken Clouds 3500ft
1011 - ETNW 150420Z 18005KT 9999 FEW027 BKN035 07/06 Q1011 BLU BLU
VFR 7°C / 6°C 210º 2kt 9700m - Broken Clouds 3300ft 1012 - ETNW 150320Z 21002KT 9999 BKN033 07/06 Q1012 BLU
MVFR 7°C / 6°C 250º 4kt 9700m Light Rain 1.00mm precipitation Broken Clouds 2800ft 1013 - ETNW 150220Z 25004KT 9999 -RA BKN028 07/06 Q1013 BLU
MVFR 9°C / 4°C 220º 6kt 9700m Light Rain 1.00mm precipitation Broken Clouds 2800ft
Broken Clouds 10000ft
1014 - ETNW 150120Z 22006KT 9999 -RA BKN028 BKN100 09/04 Q1014 BLU
VFR 9°C / 2°C 110º 3kt 9700m - Scattered Clouds 5500ft
Broken Clouds 10000ft
1015 - ETNW 150020Z 11003KT 9999 SCT055 BKN100 09/02 Q1015 BLU
VFR 9°C / 2°C 300º 2kt 9700m - Broken Clouds 10000ft 1016 - ETNW 142320Z 30002KT 9999 BKN100 09/02 Q1016 BLU
VFR 10°C / 2°C 320º 5kt 9700m - Broken Clouds 11000ft 1016 - ETNW 142220Z 32005KT 9999 BKN110 10/02 Q1016 BLU
VFR 10°C / 1°C 310º 6kt 9700m - Broken Clouds 12000ft 1016 - ETNW 142120Z 31006KT 9999 BKN120 10/01 Q1016 BLU
VFR 11°C / 2°C 300º 6kt 9700m - Broken Clouds 12000ft 1017 - ETNW 142020Z 30006KT 9999 BKN120 11/02 Q1017 BLU
VFR 12°C / 2°C 300º 8kt 9700m - Broken Clouds 15000ft 1018 - ETNW 141920Z 30008KT 9999 BKN150 12/02 Q1018 BLU
VFR 12°C / 1°C 290º 8kt 9700m - Broken Clouds 16000ft 1018 - ETNW 141820Z 29008KT 9999 BKN160 12/01 Q1018 BLU
VFR 13°C / 0°C 290º 13kt 9700m - Few Clouds 6000ft
Broken Clouds 20000ft
1018 - ETNW 141720Z 29013KT 9999 FEW060 BKN200 13/00 Q1018 BLU+
VFR 14°C / 1°C 290º 13kt 9700m - Few Clouds 6000ft
Broken Clouds 22000ft
1019 - ETNW 141620Z 29013KT 9999 FEW060 BKN220 14/01 Q1019 BLU+
VFR 15°C / 0°C 290º 15kt 9700m - Scattered Clouds 6000ft
Broken Clouds 22000ft
1019 - ETNW 141520Z 29015KT 9999 SCT060 BKN220 15/00 Q1019 BLU+
VFR 16°C / 0°C 280º 14kt 9700m - Scattered Clouds 6000ft
Broken Clouds 22000ft
1019 - ETNW 141420Z 28014KT 9999 SCT060 BKN220 16/00 Q1019 BLU+
VFR 16°C / 1°C 290º 13kt 9700m - Scattered Clouds 6000ft
Scattered Clouds 17000ft
Broken Clouds 22000ft
1020 - ETNW 141320Z 29013KT 9999 SCT060 SCT170 BKN220 16/01 Q1020 BLU+
VFR 15°C / 1°C 280º 14kt 9700m - Scattered Clouds 5000ft
Broken Clouds 17000ft
1020 - ETNW 141220Z 28014KT 9999 SCT050 BKN170 15/01 Q1020 BLU
VFR 14°C / 2°C 280º 14kt 9700m - Scattered Clouds 4500ft
Broken Clouds 16000ft
1020 - ETNW 141120Z 28014KT 9999 SCT045 BKN160 14/02 Q1020 BLU
VFR 14°C / 3°C 290º 14kt 9700m - Few Clouds 4000ft
Broken Clouds 15000ft
1021 - ETNW 141020Z 29014KT 9999 FEW040 BKN150 14/03 Q1021 BLU
VFR 13°C / 3°C 290º 14kt 9700m - Few Clouds 3500ft
Scattered Clouds 6000ft
Broken Clouds 16000ft
1020 - ETNW 140920Z 29014KT 9999 FEW035 SCT060 BKN160 13/03 Q1020 BLU
VFR 13°C / 2°C 300º 13kt 9700m - Few Clouds 3500ft
Scattered Clouds 6000ft
Broken Clouds 17000ft
1020 - ETNW 140820Z 30013KT 9999 FEW035 SCT060 BKN170 13/02 Q1020 BLU
VFR 13°C / 4°C 290º 14kt 9700m - Few Clouds 3300ft
Broken Clouds 6000ft
Broken Clouds 18000ft
1020 - ETNW 140720Z 29014KT 9999 FEW033 BKN060 BKN180 13/04 Q1020 BLU
VFR 13°C / 5°C 300º 13kt 9700m - Broken Clouds 6000ft
Broken Clouds 19000ft
1019 - ETNW 140620Z 30013KT 9999 BKN060 BKN190 13/05 Q1019 BLU

VFR

8°C / 6°C

[Mai mult]
Vânt 190º 5kt
Vizibilitate 9700m
Vremea -
Nori Few Clouds 2200ft
Broken Clouds 3800ft
Presiune 1011
Schimbă -
Brut ETNW 150520Z 19005KT 9999 FEW022 BKN038 08/06 Q1011 BLU BLU

VFR

7°C / 6°C

[Mai mult]
Vânt 180º 5kt
Vizibilitate 9700m
Vremea -
Nori Few Clouds 2700ft
Broken Clouds 3500ft
Presiune 1011
Schimbă -
Brut ETNW 150420Z 18005KT 9999 FEW027 BKN035 07/06 Q1011 BLU BLU

VFR

7°C / 6°C

[Mai mult]
Vânt 210º 2kt
Vizibilitate 9700m
Vremea -
Nori Broken Clouds 3300ft
Presiune 1012
Schimbă -
Brut ETNW 150320Z 21002KT 9999 BKN033 07/06 Q1012 BLU

MVFR

7°C / 6°C

[Mai mult]
Vânt 250º 4kt
Vizibilitate 9700m
Vremea Light Rain 1.00mm precipitation
Nori Broken Clouds 2800ft
Presiune 1013
Schimbă -
Brut ETNW 150220Z 25004KT 9999 -RA BKN028 07/06 Q1013 BLU

MVFR

9°C / 4°C

[Mai mult]
Vânt 220º 6kt
Vizibilitate 9700m
Vremea Light Rain 1.00mm precipitation
Nori Broken Clouds 2800ft
Broken Clouds 10000ft
Presiune 1014
Schimbă -
Brut ETNW 150120Z 22006KT 9999 -RA BKN028 BKN100 09/04 Q1014 BLU

VFR

9°C / 2°C

[Mai mult]
Vânt 110º 3kt
Vizibilitate 9700m
Vremea -
Nori Scattered Clouds 5500ft
Broken Clouds 10000ft
Presiune 1015
Schimbă -
Brut ETNW 150020Z 11003KT 9999 SCT055 BKN100 09/02 Q1015 BLU

VFR

9°C / 2°C

[Mai mult]
Vânt 300º 2kt
Vizibilitate 9700m
Vremea -
Nori Broken Clouds 10000ft
Presiune 1016
Schimbă -
Brut ETNW 142320Z 30002KT 9999 BKN100 09/02 Q1016 BLU

VFR

10°C / 2°C

[Mai mult]
Vânt 320º 5kt
Vizibilitate 9700m
Vremea -
Nori Broken Clouds 11000ft
Presiune 1016
Schimbă -
Brut ETNW 142220Z 32005KT 9999 BKN110 10/02 Q1016 BLU

VFR

10°C / 1°C

[Mai mult]
Vânt 310º 6kt
Vizibilitate 9700m
Vremea -
Nori Broken Clouds 12000ft
Presiune 1016
Schimbă -
Brut ETNW 142120Z 31006KT 9999 BKN120 10/01 Q1016 BLU

VFR

11°C / 2°C

[Mai mult]
Vânt 300º 6kt
Vizibilitate 9700m
Vremea -
Nori Broken Clouds 12000ft
Presiune 1017
Schimbă -
Brut ETNW 142020Z 30006KT 9999 BKN120 11/02 Q1017 BLU

VFR

12°C / 2°C

[Mai mult]
Vânt 300º 8kt
Vizibilitate 9700m
Vremea -
Nori Broken Clouds 15000ft
Presiune 1018
Schimbă -
Brut ETNW 141920Z 30008KT 9999 BKN150 12/02 Q1018 BLU

VFR

12°C / 1°C

[Mai mult]
Vânt 290º 8kt
Vizibilitate 9700m
Vremea -
Nori Broken Clouds 16000ft
Presiune 1018
Schimbă -
Brut ETNW 141820Z 29008KT 9999 BKN160 12/01 Q1018 BLU

VFR

13°C / 0°C

[Mai mult]
Vânt 290º 13kt
Vizibilitate 9700m
Vremea -
Nori Few Clouds 6000ft
Broken Clouds 20000ft
Presiune 1018
Schimbă -
Brut ETNW 141720Z 29013KT 9999 FEW060 BKN200 13/00 Q1018 BLU+

VFR

14°C / 1°C

[Mai mult]
Vânt 290º 13kt
Vizibilitate 9700m
Vremea -
Nori Few Clouds 6000ft
Broken Clouds 22000ft
Presiune 1019
Schimbă -
Brut ETNW 141620Z 29013KT 9999 FEW060 BKN220 14/01 Q1019 BLU+

VFR

15°C / 0°C

[Mai mult]
Vânt 290º 15kt
Vizibilitate 9700m
Vremea -
Nori Scattered Clouds 6000ft
Broken Clouds 22000ft
Presiune 1019
Schimbă -
Brut ETNW 141520Z 29015KT 9999 SCT060 BKN220 15/00 Q1019 BLU+

VFR

16°C / 0°C

[Mai mult]
Vânt 280º 14kt
Vizibilitate 9700m
Vremea -
Nori Scattered Clouds 6000ft
Broken Clouds 22000ft
Presiune 1019
Schimbă -
Brut ETNW 141420Z 28014KT 9999 SCT060 BKN220 16/00 Q1019 BLU+

VFR

16°C / 1°C

[Mai mult]
Vânt 290º 13kt
Vizibilitate 9700m
Vremea -
Nori Scattered Clouds 6000ft
Scattered Clouds 17000ft
Broken Clouds 22000ft
Presiune 1020
Schimbă -
Brut ETNW 141320Z 29013KT 9999 SCT060 SCT170 BKN220 16/01 Q1020 BLU+

VFR

15°C / 1°C

[Mai mult]
Vânt 280º 14kt
Vizibilitate 9700m
Vremea -
Nori Scattered Clouds 5000ft
Broken Clouds 17000ft
Presiune 1020
Schimbă -
Brut ETNW 141220Z 28014KT 9999 SCT050 BKN170 15/01 Q1020 BLU

VFR

14°C / 2°C

[Mai mult]
Vânt 280º 14kt
Vizibilitate 9700m
Vremea -
Nori Scattered Clouds 4500ft
Broken Clouds 16000ft
Presiune 1020
Schimbă -
Brut ETNW 141120Z 28014KT 9999 SCT045 BKN160 14/02 Q1020 BLU

VFR

14°C / 3°C

[Mai mult]
Vânt 290º 14kt
Vizibilitate 9700m
Vremea -
Nori Few Clouds 4000ft
Broken Clouds 15000ft
Presiune 1021
Schimbă -
Brut ETNW 141020Z 29014KT 9999 FEW040 BKN150 14/03 Q1021 BLU

VFR

13°C / 3°C

[Mai mult]
Vânt 290º 14kt
Vizibilitate 9700m
Vremea -
Nori Few Clouds 3500ft
Scattered Clouds 6000ft
Broken Clouds 16000ft
Presiune 1020
Schimbă -
Brut ETNW 140920Z 29014KT 9999 FEW035 SCT060 BKN160 13/03 Q1020 BLU

VFR

13°C / 2°C

[Mai mult]
Vânt 300º 13kt
Vizibilitate 9700m
Vremea -
Nori Few Clouds 3500ft
Scattered Clouds 6000ft
Broken Clouds 17000ft
Presiune 1020
Schimbă -
Brut ETNW 140820Z 30013KT 9999 FEW035 SCT060 BKN170 13/02 Q1020 BLU

VFR

13°C / 4°C

[Mai mult]
Vânt 290º 14kt
Vizibilitate 9700m
Vremea -
Nori Few Clouds 3300ft
Broken Clouds 6000ft
Broken Clouds 18000ft
Presiune 1020
Schimbă -
Brut ETNW 140720Z 29014KT 9999 FEW033 BKN060 BKN180 13/04 Q1020 BLU

VFR

13°C / 5°C

[Mai mult]
Vânt 300º 13kt
Vizibilitate 9700m
Vremea -
Nori Broken Clouds 6000ft
Broken Clouds 19000ft
Presiune 1019
Schimbă -
Brut ETNW 140620Z 30013KT 9999 BKN060 BKN190 13/05 Q1019 BLU

TAF pentru Bordenau (ETNW)

From till


From till Wind 220º 10kt. Visibility 9700m. Scattered Clouds 2000ft. Broken Clouds 4000ft.
Becoming from till
Temporarly from till Wind 240º 15kt. Gust 30kt. Visibility 4000m. Showers Rain . Broken Clouds 1000ft. Broken Clouds 2000ft.
With 30% probability, from till Wind 240º 20kt. Gust 35kt. Visibility 3000m. Thunderstorm Rain . Broken Clouds 600ft. Broken Clouds 1200ft.

Brut: TAF ETNW 150416Z 1505/1605 22010KT 9999 NSW SCT020 BKN040 BECMG 1509/1511 23010G25KT 9999 NSW SCT020 BKN040 TEMPO 1514/1605 24015G30KT 4000 SHRA BKN010 BKN020TCU PROB30 1514/1605 24020G35KT 3000 TSRA BKN006 BKN012CB

rainNOW: Ploaie nowcasting pentru Bordenau și împrejurimi (pe o rază de 25 km)

0.0 mm
0.0 mm
0.0 mm
0.0 mm
0.0 mm
0.0 mm
0.0 mm
0.0 mm
0.0 mm
0.0 mm
0.0 mm
0.0 mm

Radar și nowcast de precipitații pentru Bordenau

Burniță
Ușoară
Moderat
Greu
Foarte greu
Grindină

Markerul de locație este plasat în Bordenau. Această animație arată radarul de precipitații pentru intervalul de timp selectat, precum și o prognoză 2h. Crucile portocalii indică fulgerele. Date furnizate de nowcast.de (disponibile în SUA, Europa, Australia). Ploaia sau ninsoarea slabă ar putea fi invizibilă pentru radar. Intensitatea precipitațiilor este codificată prin culori, de la turcoaz la roșu.

Imagini satelitare și ploaie pentru Bordenau, Germania

Markerul cu locaţia este poziţionat pe Bordenau. [Mai mult]

Imaginea satelitară în timp real combină lumina vizibilă din timpul zilei cu radiația cu infraroșu din timpul nopții. Pe timp de noapte, imaginea nu este întunecată, deoarece radiația cu infraroșu poate detecta diferențele de temperatură. Din păcate, norii joși și ceața sunt greu de recunoscut față de temperatura de la sol, din această cauză putând fi invizibili pe timp de noapte. Imaginile satelitare Meteosat pentru Europa sunt actualizate în timp real din 5 în 5 minute. Imaginile GOES-16/GOES-17 (America de Nord și de Sud) și Himawari (Asia) sunt actualizate din 10 în 10 minute.

Precipitațiile sunt estimate pe baza radarelor și a sateliților. Estimările de precipitații de la sateliți sunt mai puțin precise pe timp de noapte decât pe timp de zi.

© 2024 meteoblue, NOAA Satellites GOES-16 and EUMETSAT. Datele despre fulgere furnizate de către nowcast.

Mergi sus
×
Bună ziua,
se pare că folosiți un blocant de reclame.

Publicitatea este esențială pentru a menține site-ul nostru gratuit cu detalii și acuratețe unice.

Vă rugăm să whitelist www.meteoblue.com în ad blocker-ul dvs. sau luați în considerare cumpărarea unuia dintre produsele noastre:

Aveți deja un abonament?
Atunci vă rugăm login.